sensor_id;sensor_type;location;lat;lon;timestamp;temperature;humidity
16140;DHT22;8175;49.326;12.690;2023-08-01T06:33:27;14.70;99.90
16140;DHT22;8175;49.326;12.690;2023-08-01T06:57:49;14.80;99.90
16140;DHT22;8175;49.326;12.690;2023-08-01T07:00:15;14.80;99.90
16140;DHT22;8175;49.326;12.690;2023-08-01T07:02:40;14.80;99.90
16140;DHT22;8175;49.326;12.690;2023-08-01T07:05:06;14.80;99.90
16140;DHT22;8175;49.326;12.690;2023-08-01T07:07:32;14.80;99.90
16140;DHT22;8175;49.326;12.690;2023-08-01T07:09:57;14.80;99.90
16140;DHT22;8175;49.326;12.690;2023-08-01T07:12:23;14.80;99.90
16140;DHT22;8175;49.326;12.690;2023-08-01T07:14:49;14.90;99.90
16140;DHT22;8175;49.326;12.690;2023-08-01T07:17:14;14.90;99.90
16140;DHT22;8175;49.326;12.690;2023-08-01T07:19:40;14.90;99.90
16140;DHT22;8175;49.326;12.690;2023-08-01T07:22:06;14.90;99.90
16140;DHT22;8175;49.326;12.690;2023-08-01T07:24:31;14.90;99.90
16140;DHT22;8175;49.326;12.690;2023-08-01T07:26:57;14.90;99.90
16140;DHT22;8175;49.326;12.690;2023-08-01T07:29:22;14.90;99.90
16140;DHT22;8175;49.326;12.690;2023-08-01T07:31:48;15.00;99.90
16140;DHT22;8175;49.326;12.690;2023-08-01T07:34:14;15.00;99.90
16140;DHT22;8175;49.326;12.690;2023-08-01T07:36:39;15.00;99.90
16140;DHT22;8175;49.326;12.690;2023-08-01T07:39:05;15.00;99.90
16140;DHT22;8175;49.326;12.690;2023-08-01T07:41:30;15.10;99.90
16140;DHT22;8175;49.326;12.690;2023-08-01T07:43:56;15.00;99.90
16140;DHT22;8175;49.326;12.690;2023-08-01T07:46:22;15.00;99.90
16140;DHT22;8175;49.326;12.690;2023-08-01T07:48:47;15.00;99.90
16140;DHT22;8175;49.326;12.690;2023-08-01T07:51:14;15.10;99.90
16140;DHT22;8175;49.326;12.690;2023-08-01T07:53:40;15.10;99.90
16140;DHT22;8175;49.326;12.690;2023-08-01T07:56:05;15.10;99.90
16140;DHT22;8175;49.326;12.690;2023-08-01T07:58:34;15.10;99.90
16140;DHT22;8175;49.326;12.690;2023-08-01T08:01:04;15.10;99.90
16140;DHT22;8175;49.326;12.690;2023-08-01T08:03:30;15.10;99.90
16140;DHT22;8175;49.326;12.690;2023-08-01T08:05:56;15.20;99.90
16140;DHT22;8175;49.326;12.690;2023-08-01T08:08:21;15.30;99.90
16140;DHT22;8175;49.326;12.690;2023-08-01T08:10:47;15.40;99.90
16140;DHT22;8175;49.326;12.690;2023-08-01T08:13:13;15.50;99.90
16140;DHT22;8175;49.326;12.690;2023-08-01T08:15:38;15.70;99.90
16140;DHT22;8175;49.326;12.690;2023-08-01T08:18:04;15.60;99.90
16140;DHT22;8175;49.326;12.690;2023-08-01T08:20:40;15.70;99.90
16140;DHT22;8175;49.326;12.690;2023-08-01T08:23:05;15.80;99.90
16140;DHT22;8175;49.326;12.690;2023-08-01T08:25:31;15.80;99.90
16140;DHT22;8175;49.326;12.690;2023-08-01T08:27:57;15.80;99.90
16140;DHT22;8175;49.326;12.690;2023-08-01T08:30:22;15.80;99.90
16140;DHT22;8175;49.326;12.690;2023-08-01T08:32:48;15.80;99.90
16140;DHT22;8175;49.326;12.690;2023-08-01T08:35:13;15.70;99.90
16140;DHT22;8175;49.326;12.690;2023-08-01T08:37:39;15.70;99.90
16140;DHT22;8175;49.326;12.690;2023-08-01T08:40:05;15.70;99.90
16140;DHT22;8175;49.326;12.690;2023-08-01T08:42:33;15.70;99.90
16140;DHT22;8175;49.326;12.690;2023-08-01T08:45:01;15.60;99.90
16140;DHT22;8175;49.326;12.690;2023-08-01T08:47:28;15.60;99.90
16140;DHT22;8175;49.326;12.690;2023-08-01T08:49:55;15.60;99.90
16140;DHT22;8175;49.326;12.690;2023-08-01T08:52:23;15.60;99.90
16140;DHT22;8175;49.326;12.690;2023-08-01T08:54:50;15.70;99.90
16140;DHT22;8175;49.326;12.690;2023-08-01T08:57:16;15.70;99.90
16140;DHT22;8175;49.326;12.690;2023-08-01T08:59:43;15.60;99.90
16140;DHT22;8175;49.326;12.690;2023-08-01T09:02:09;15.70;99.90
16140;DHT22;8175;49.326;12.690;2023-08-01T09:04:34;15.70;99.90
16140;DHT22;8175;49.326;12.690;2023-08-01T09:07:09;15.80;99.90
16140;DHT22;8175;49.326;12.690;2023-08-01T09:09:35;15.80;99.90
16140;DHT22;8175;49.326;12.690;2023-08-01T09:12:02;15.80;99.90
16140;DHT22;8175;49.326;12.690;2023-08-01T09:14:28;15.90;99.90
16140;DHT22;8175;49.326;12.690;2023-08-01T09:16:55;15.90;99.90
16140;DHT22;8175;49.326;12.690;2023-08-01T09:19:30;16.10;99.90
16140;DHT22;8175;49.326;12.690;2023-08-01T09:21:56;16.20;99.90
16140;DHT22;8175;49.326;12.690;2023-08-01T09:24:21;16.10;99.90
16140;DHT22;8175;49.326;12.690;2023-08-01T09:26:48;16.10;99.90
16140;DHT22;8175;49.326;12.690;2023-08-01T09:29:16;16.10;99.90
16140;DHT22;8175;49.326;12.690;2023-08-01T09:31:43;16.10;99.90
16140;DHT22;8175;49.326;12.690;2023-08-01T09:34:27;15.90;99.90
16140;DHT22;8175;49.326;12.690;2023-08-01T09:37:00;15.80;99.90
16140;DHT22;8175;49.326;12.690;2023-08-01T09:39:26;15.90;99.90
16140;DHT22;8175;49.326;12.690;2023-08-01T09:42:10;15.90;99.90
16140;DHT22;8175;49.326;12.690;2023-08-01T09:44:36;15.90;99.90
16140;DHT22;8175;49.326;12.690;2023-08-01T09:47:03;15.90;99.90
16140;DHT22;8175;49.326;12.690;2023-08-01T09:49:30;16.00;99.90
16140;DHT22;8175;49.326;12.690;2023-08-01T09:51:57;16.00;99.90
16140;DHT22;8175;49.326;12.690;2023-08-01T09:54:23;15.90;99.90
16140;DHT22;8175;49.326;12.690;2023-08-01T09:56:51;15.90;99.90
16140;DHT22;8175;49.326;12.690;2023-08-01T09:59:22;16.00;99.90
16140;DHT22;8175;49.326;12.690;2023-08-01T10:01:49;15.90;99.90
16140;DHT22;8175;49.326;12.690;2023-08-01T10:04:27;15.80;99.90
16140;DHT22;8175;49.326;12.690;2023-08-01T10:06:58;15.80;99.90
16140;DHT22;8175;49.326;12.690;2023-08-01T10:09:25;15.80;99.90
16140;DHT22;8175;49.326;12.690;2023-08-01T10:11:51;15.80;99.90
16140;DHT22;8175;49.326;12.690;2023-08-01T10:14:21;15.80;99.90
16140;DHT22;8175;49.326;12.690;2023-08-01T10:16:47;15.70;99.90
16140;DHT22;8175;49.326;12.690;2023-08-01T10:19:13;15.60;99.90
16140;DHT22;8175;49.326;12.690;2023-08-01T10:21:41;15.70;99.90
16140;DHT22;8175;49.326;12.690;2023-08-01T10:24:08;15.70;99.90
16140;DHT22;8175;49.326;12.690;2023-08-01T10:26:34;15.80;99.90
16140;DHT22;8175;49.326;12.690;2023-08-01T10:29:00;16.00;99.90
16140;DHT22;8175;49.326;12.690;2023-08-01T10:31:27;16.30;99.90
16140;DHT22;8175;49.326;12.690;2023-08-01T10:34:07;16.50;99.90
16140;DHT22;8175;49.326;12.690;2023-08-01T10:36:33;16.50;99.90
16140;DHT22;8175;49.326;12.690;2023-08-01T10:39:01;16.70;99.90
16140;DHT22;8175;49.326;12.690;2023-08-01T10:41:35;17.00;99.90
16140;DHT22;8175;49.326;12.690;2023-08-01T10:44:14;17.10;99.90
16140;DHT22;8175;49.326;12.690;2023-08-01T10:46:59;17.10;99.90
16140;DHT22;8175;49.326;12.690;2023-08-01T10:49:44;17.10;99.90
16140;DHT22;8175;49.326;12.690;2023-08-01T10:54:41;17.60;99.90
16140;DHT22;8175;49.326;12.690;2023-08-01T10:57:07;17.90;99.90
16140;DHT22;8175;49.326;12.690;2023-08-01T10:59:34;17.60;99.90
16140;DHT22;8175;49.326;12.690;2023-08-01T11:02:00;17.60;99.90
16140;DHT22;8175;49.326;12.690;2023-08-01T11:04:26;17.70;99.90
16140;DHT22;8175;49.326;12.690;2023-08-01T11:06:53;18.00;99.90
16140;DHT22;8175;49.326;12.690;2023-08-01T11:09:26;18.20;99.90
16140;DHT22;8175;49.326;12.690;2023-08-01T11:11:56;18.10;99.90
16140;DHT22;8175;49.326;12.690;2023-08-01T11:14:26;18.10;99.90
16140;DHT22;8175;49.326;12.690;2023-08-01T11:16:54;17.90;99.90
16140;DHT22;8175;49.326;12.690;2023-08-01T11:19:24;17.90;99.90
16140;DHT22;8175;49.326;12.690;2023-08-01T11:21:51;18.00;99.90
16140;DHT22;8175;49.326;12.690;2023-08-01T11:24:19;18.20;99.90
16140;DHT22;8175;49.326;12.690;2023-08-01T11:26:46;18.20;99.90
16140;DHT22;8175;49.326;12.690;2023-08-01T11:29:13;18.20;99.90
16140;DHT22;8175;49.326;12.690;2023-08-01T11:31:40;18.10;99.90
16140;DHT22;8175;49.326;12.690;2023-08-01T11:34:09;18.20;99.90
16140;DHT22;8175;49.326;12.690;2023-08-01T11:36:37;18.30;99.90
16140;DHT22;8175;49.326;12.690;2023-08-01T11:39:04;18.10;99.90
16140;DHT22;8175;49.326;12.690;2023-08-01T11:41:30;18.10;99.90
16140;DHT22;8175;49.326;12.690;2023-08-01T11:44:01;18.30;99.90
16140;DHT22;8175;49.326;12.690;2023-08-01T11:46:32;18.30;99.90
16140;DHT22;8175;49.326;12.690;2023-08-01T11:48:58;18.50;99.90
16140;DHT22;8175;49.326;12.690;2023-08-01T11:51:25;18.70;99.90
16140;DHT22;8175;49.326;12.690;2023-08-01T11:54:04;18.30;99.90
16140;DHT22;8175;49.326;12.690;2023-08-01T11:56:30;18.00;99.90
16140;DHT22;8175;49.326;12.690;2023-08-01T11:58:56;17.70;99.90
16140;DHT22;8175;49.326;12.690;2023-08-01T12:01:22;17.50;99.90
16140;DHT22;8175;49.326;12.690;2023-08-01T12:03:52;17.30;99.90
16140;DHT22;8175;49.326;12.690;2023-08-01T12:06:23;17.30;99.90
16140;DHT22;8175;49.326;12.690;2023-08-01T12:08:52;17.30;99.90
16140;DHT22;8175;49.326;12.690;2023-08-01T12:11:23;17.30;99.90
16140;DHT22;8175;49.326;12.690;2023-08-01T12:14:02;17.20;99.90
16140;DHT22;8175;49.326;12.690;2023-08-01T12:16:28;17.00;99.90
16140;DHT22;8175;49.326;12.690;2023-08-01T12:18:54;16.90;99.90
16140;DHT22;8175;49.326;12.690;2023-08-01T12:21:20;16.80;99.90
16140;DHT22;8175;49.326;12.690;2023-08-01T12:23:45;16.70;99.90
16140;DHT22;8175;49.326;12.690;2023-08-01T12:26:11;16.70;99.90
16140;DHT22;8175;49.326;12.690;2023-08-01T12:28:37;16.60;99.90
16140;DHT22;8175;49.326;12.690;2023-08-01T12:31:03;16.70;99.90
16140;DHT22;8175;49.326;12.690;2023-08-01T12:33:29;16.80;99.90
16140;DHT22;8175;49.326;12.690;2023-08-01T12:35:55;17.00;99.90
16140;DHT22;8175;49.326;12.690;2023-08-01T12:38:21;17.10;99.90
16140;DHT22;8175;49.326;12.690;2023-08-01T12:40:46;17.10;99.90
16140;DHT22;8175;49.326;12.690;2023-08-01T12:43:13;17.10;99.90
16140;DHT22;8175;49.326;12.690;2023-08-01T12:45:39;16.90;99.90
16140;DHT22;8175;49.326;12.690;2023-08-01T12:48:04;16.90;99.90
16140;DHT22;8175;49.326;12.690;2023-08-01T12:50:30;17.00;99.90
16140;DHT22;8175;49.326;12.690;2023-08-01T12:52:56;17.20;99.90
16140;DHT22;8175;49.326;12.690;2023-08-01T12:55:21;17.30;99.90
16140;DHT22;8175;49.326;12.690;2023-08-01T12:57:47;17.30;99.90
16140;DHT22;8175;49.326;12.690;2023-08-01T13:00:13;17.30;99.90
16140;DHT22;8175;49.326;12.690;2023-08-01T13:02:38;17.30;99.90
16140;DHT22;8175;49.326;12.690;2023-08-01T13:05:05;17.30;99.90
16140;DHT22;8175;49.326;12.690;2023-08-01T13:07:31;17.40;99.90
16140;DHT22;8175;49.326;12.690;2023-08-01T13:10:00;17.50;99.90
16140;DHT22;8175;49.326;12.690;2023-08-01T13:12:26;17.50;99.90
16140;DHT22;8175;49.326;12.690;2023-08-01T13:14:52;17.50;99.90
16140;DHT22;8175;49.326;12.690;2023-08-01T13:17:18;17.40;99.90
16140;DHT22;8175;49.326;12.690;2023-08-01T13:19:43;17.50;99.90
16140;DHT22;8175;49.326;12.690;2023-08-01T13:22:09;17.70;99.90
16140;DHT22;8175;49.326;12.690;2023-08-01T13:24:35;18.00;99.90
16140;DHT22;8175;49.326;12.690;2023-08-01T13:27:01;18.20;99.90
16140;DHT22;8175;49.326;12.690;2023-08-01T13:29:26;18.50;99.90
16140;DHT22;8175;49.326;12.690;2023-08-01T13:31:52;19.20;99.90
16140;DHT22;8175;49.326;12.690;2023-08-01T13:34:17;19.50;99.90
16140;DHT22;8175;49.326;12.690;2023-08-01T13:36:43;19.50;99.90
16140;DHT22;8175;49.326;12.690;2023-08-01T13:39:09;19.40;99.90
16140;DHT22;8175;49.326;12.690;2023-08-01T13:41:35;18.90;99.90
16140;DHT22;8175;49.326;12.690;2023-08-01T13:44:00;18.80;99.90
16140;DHT22;8175;49.326;12.690;2023-08-01T13:46:27;19.20;99.90
16140;DHT22;8175;49.326;12.690;2023-08-01T13:48:53;19.50;99.90
16140;DHT22;8175;49.326;12.690;2023-08-01T13:51:19;20.10;99.90
16140;DHT22;8175;49.326;12.690;2023-08-01T13:53:45;20.40;99.90
16140;DHT22;8175;49.326;12.690;2023-08-01T13:56:11;20.50;99.90
16140;DHT22;8175;49.326;12.690;2023-08-01T13:58:40;20.50;99.90
16140;DHT22;8175;49.326;12.690;2023-08-01T14:01:07;20.30;99.90
16140;DHT22;8175;49.326;12.690;2023-08-01T14:03:33;19.90;99.90
16140;DHT22;8175;49.326;12.690;2023-08-01T14:06:09;20.00;99.90
16140;DHT22;8175;49.326;12.690;2023-08-01T14:08:36;20.20;99.90
16140;DHT22;8175;49.326;12.690;2023-08-01T14:11:06;21.30;99.90
16140;DHT22;8175;49.326;12.690;2023-08-01T14:13:33;21.60;99.90
16140;DHT22;8175;49.326;12.690;2023-08-01T14:15:59;21.30;99.90
16140;DHT22;8175;49.326;12.690;2023-08-01T14:18:25;21.10;99.90
16140;DHT22;8175;49.326;12.690;2023-08-01T14:20:51;21.40;99.90
16140;DHT22;8175;49.326;12.690;2023-08-01T14:23:18;21.20;99.90
16140;DHT22;8175;49.326;12.690;2023-08-01T14:25:44;21.70;99.90
16140;DHT22;8175;49.326;12.690;2023-08-01T14:28:10;22.70;99.90
16140;DHT22;8175;49.326;12.690;2023-08-01T14:30:40;23.30;99.90
16140;DHT22;8175;49.326;12.690;2023-08-01T14:33:07;23.30;99.90
16140;DHT22;8175;49.326;12.690;2023-08-01T14:35:35;22.70;99.90
16140;DHT22;8175;49.326;12.690;2023-08-01T14:38:01;22.30;99.90
16140;DHT22;8175;49.326;12.690;2023-08-01T14:40:28;21.40;99.90
16140;DHT22;8175;49.326;12.690;2023-08-01T14:42:54;20.40;99.90
16140;DHT22;8175;49.326;12.690;2023-08-01T14:45:20;19.50;99.90
16140;DHT22;8175;49.326;12.690;2023-08-01T14:47:46;18.80;99.90
16140;DHT22;8175;49.326;12.690;2023-08-01T14:50:13;18.60;99.90
16140;DHT22;8175;49.326;12.690;2023-08-01T14:52:40;18.60;99.90
16140;DHT22;8175;49.326;12.690;2023-08-01T14:55:06;19.00;99.90
16140;DHT22;8175;49.326;12.690;2023-08-01T14:57:32;19.10;99.90
16140;DHT22;8175;49.326;12.690;2023-08-01T14:59:58;18.90;99.90
16140;DHT22;8175;49.326;12.690;2023-08-01T15:02:23;18.60;99.90
16140;DHT22;8175;49.326;12.690;2023-08-01T15:04:53;18.50;99.90
16140;DHT22;8175;49.326;12.690;2023-08-01T15:07:24;18.20;99.90
16140;DHT22;8175;49.326;12.690;2023-08-01T15:09:51;18.70;99.90
16140;DHT22;8175;49.326;12.690;2023-08-01T15:12:20;19.40;99.90
16140;DHT22;8175;49.326;12.690;2023-08-01T15:14:54;19.40;99.90
16140;DHT22;8175;49.326;12.690;2023-08-01T15:17:20;19.00;99.90
16140;DHT22;8175;49.326;12.690;2023-08-01T15:19:45;19.30;99.90
16140;DHT22;8175;49.326;12.690;2023-08-01T15:22:13;20.30;99.90
16140;DHT22;8175;49.326;12.690;2023-08-01T15:24:39;21.20;99.90
16140;DHT22;8175;49.326;12.690;2023-08-01T15:27:05;21.60;99.90
16140;DHT22;8175;49.326;12.690;2023-08-01T15:29:30;21.70;99.90
16140;DHT22;8175;49.326;12.690;2023-08-01T15:31:56;21.10;99.90
16140;DHT22;8175;49.326;12.690;2023-08-01T15:34:22;20.50;99.90
16140;DHT22;8175;49.326;12.690;2023-08-01T15:36:48;20.30;99.90
16140;DHT22;8175;49.326;12.690;2023-08-01T15:39:14;20.70;99.90
16140;DHT22;8175;49.326;12.690;2023-08-01T15:41:40;21.10;99.90
16140;DHT22;8175;49.326;12.690;2023-08-01T15:44:06;21.50;99.90
16140;DHT22;8175;49.326;12.690;2023-08-01T15:46:32;21.80;99.90
16140;DHT22;8175;49.326;12.690;2023-08-01T15:48:58;21.50;99.90
16140;DHT22;8175;49.326;12.690;2023-08-01T15:51:24;20.70;99.90
16140;DHT22;8175;49.326;12.690;2023-08-01T15:53:49;20.00;99.90
16140;DHT22;8175;49.326;12.690;2023-08-01T15:56:15;19.60;99.90
16140;DHT22;8175;49.326;12.690;2023-08-01T15:58:41;19.30;99.90
16140;DHT22;8175;49.326;12.690;2023-08-01T16:01:06;19.10;99.90
16140;DHT22;8175;49.326;12.690;2023-08-01T16:03:37;19.00;99.90
16140;DHT22;8175;49.326;12.690;2023-08-01T16:06:04;18.90;99.90
16140;DHT22;8175;49.326;12.690;2023-08-01T16:08:30;19.00;99.90
16140;DHT22;8175;49.326;12.690;2023-08-01T16:10:55;19.20;99.90
16140;DHT22;8175;49.326;12.690;2023-08-01T16:13:21;19.40;99.90
16140;DHT22;8175;49.326;12.690;2023-08-01T16:15:48;19.60;99.90
16140;DHT22;8175;49.326;12.690;2023-08-01T16:18:17;19.80;99.90
16140;DHT22;8175;49.326;12.690;2023-08-01T16:20:44;20.40;99.90
16140;DHT22;8175;49.326;12.690;2023-08-01T16:23:10;20.50;99.90
16140;DHT22;8175;49.326;12.690;2023-08-01T16:25:36;20.70;99.90
16140;DHT22;8175;49.326;12.690;2023-08-01T16:28:02;20.40;99.90
16140;DHT22;8175;49.326;12.690;2023-08-01T16:30:28;20.10;99.90
16140;DHT22;8175;49.326;12.690;2023-08-01T16:32:54;19.70;99.90
16140;DHT22;8175;49.326;12.690;2023-08-01T16:35:19;19.30;99.90
16140;DHT22;8175;49.326;12.690;2023-08-01T16:37:46;19.40;99.90
16140;DHT22;8175;49.326;12.690;2023-08-01T16:40:12;19.80;99.90
16140;DHT22;8175;49.326;12.690;2023-08-01T16:42:38;20.00;99.90
16140;DHT22;8175;49.326;12.690;2023-08-01T16:45:05;20.00;99.90
16140;DHT22;8175;49.326;12.690;2023-08-01T16:47:32;19.70;99.90
16140;DHT22;8175;49.326;12.690;2023-08-01T16:49:58;19.40;99.90
16140;DHT22;8175;49.326;12.690;2023-08-01T16:52:24;19.20;99.90
16140;DHT22;8175;49.326;12.690;2023-08-01T16:54:50;19.00;99.90
16140;DHT22;8175;49.326;12.690;2023-08-01T16:57:16;18.90;99.90
16140;DHT22;8175;49.326;12.690;2023-08-01T16:59:42;19.00;99.90
16140;DHT22;8175;49.326;12.690;2023-08-01T17:02:09;19.50;99.90
16140;DHT22;8175;49.326;12.690;2023-08-01T17:04:38;20.00;99.90
16140;DHT22;8175;49.326;12.690;2023-08-01T17:07:04;20.10;99.90
16140;DHT22;8175;49.326;12.690;2023-08-01T17:09:29;20.10;99.90
16140;DHT22;8175;49.326;12.690;2023-08-01T17:11:56;20.00;99.90
16140;DHT22;8175;49.326;12.690;2023-08-01T17:14:23;20.00;99.90
16140;DHT22;8175;49.326;12.690;2023-08-01T17:16:48;20.10;99.90
16140;DHT22;8175;49.326;12.690;2023-08-01T17:19:15;20.00;99.90
16140;DHT22;8175;49.326;12.690;2023-08-01T17:21:41;19.90;99.90
16140;DHT22;8175;49.326;12.690;2023-08-01T17:24:08;19.90;99.90
16140;DHT22;8175;49.326;12.690;2023-08-01T17:26:33;19.80;99.90
16140;DHT22;8175;49.326;12.690;2023-08-01T17:28:59;20.00;99.90
16140;DHT22;8175;49.326;12.690;2023-08-01T17:31:25;19.90;99.90
16140;DHT22;8175;49.326;12.690;2023-08-01T17:33:57;19.60;99.90
16140;DHT22;8175;49.326;12.690;2023-08-01T17:36:24;19.40;99.90
16140;DHT22;8175;49.326;12.690;2023-08-01T17:38:49;19.20;99.90
16140;DHT22;8175;49.326;12.690;2023-08-01T17:41:19;18.90;99.90
16140;DHT22;8175;49.326;12.690;2023-08-01T17:43:45;18.70;99.90
16140;DHT22;8175;49.326;12.690;2023-08-01T17:46:10;18.70;99.90
16140;DHT22;8175;49.326;12.690;2023-08-01T17:48:36;18.70;99.90
16140;DHT22;8175;49.326;12.690;2023-08-01T17:51:08;18.70;99.90
16140;DHT22;8175;49.326;12.690;2023-08-01T17:53:35;18.80;99.90
16140;DHT22;8175;49.326;12.690;2023-08-01T17:56:02;18.80;99.90
16140;DHT22;8175;49.326;12.690;2023-08-01T17:58:29;18.60;99.90
16140;DHT22;8175;49.326;12.690;2023-08-01T18:00:54;18.40;99.90
16140;DHT22;8175;49.326;12.690;2023-08-01T18:03:20;18.20;99.90
16140;DHT22;8175;49.326;12.690;2023-08-01T18:05:46;17.80;99.90
16140;DHT22;8175;49.326;12.690;2023-08-01T18:08:12;17.60;99.90
16140;DHT22;8175;49.326;12.690;2023-08-01T18:10:37;17.40;99.90
16140;DHT22;8175;49.326;12.690;2023-08-01T18:13:03;17.10;99.90
16140;DHT22;8175;49.326;12.690;2023-08-01T18:15:29;16.90;99.90
16140;DHT22;8175;49.326;12.690;2023-08-01T18:17:56;16.70;99.90
16140;DHT22;8175;49.326;12.690;2023-08-01T18:20:22;16.60;99.90
16140;DHT22;8175;49.326;12.690;2023-08-01T18:22:48;16.70;99.90
16140;DHT22;8175;49.326;12.690;2023-08-01T18:25:13;16.70;99.90
16140;DHT22;8175;49.326;12.690;2023-08-01T18:27:40;16.70;99.90
16140;DHT22;8175;49.326;12.690;2023-08-01T18:30:06;16.80;99.90
16140;DHT22;8175;49.326;12.690;2023-08-01T18:32:32;16.90;99.90
16140;DHT22;8175;49.326;12.690;2023-08-01T18:34:57;16.80;99.90
16140;DHT22;8175;49.326;12.690;2023-08-01T18:37:25;16.80;99.90
16140;DHT22;8175;49.326;12.690;2023-08-01T18:39:55;16.90;99.90
16140;DHT22;8175;49.326;12.690;2023-08-01T18:42:24;16.90;99.90
16140;DHT22;8175;49.326;12.690;2023-08-01T18:44:50;16.90;99.90
16140;DHT22;8175;49.326;12.690;2023-08-01T18:47:17;16.60;99.90
16140;DHT22;8175;49.326;12.690;2023-08-01T18:49:42;16.20;99.90
16140;DHT22;8175;49.326;12.690;2023-08-01T18:52:08;15.90;99.90
16140;DHT22;8175;49.326;12.690;2023-08-01T18:54:34;15.50;99.90
16140;DHT22;8175;49.326;12.690;2023-08-01T18:57:00;15.30;99.90
16140;DHT22;8175;49.326;12.690;2023-08-01T18:59:25;15.20;99.90
16140;DHT22;8175;49.326;12.690;2023-08-01T19:01:51;14.70;99.90
16140;DHT22;8175;49.326;12.690;2023-08-01T19:04:17;14.20;99.90
16140;DHT22;8175;49.326;12.690;2023-08-01T19:06:44;13.90;99.90
16140;DHT22;8175;49.326;12.690;2023-08-01T19:09:10;13.70;99.90
16140;DHT22;8175;49.326;12.690;2023-08-01T19:11:36;13.60;99.90
16140;DHT22;8175;49.326;12.690;2023-08-01T19:14:01;13.50;99.90
16140;DHT22;8175;49.326;12.690;2023-08-01T19:16:29;13.40;99.90
16140;DHT22;8175;49.326;12.690;2023-08-01T19:18:55;13.40;99.90
16140;DHT22;8175;49.326;12.690;2023-08-01T19:21:21;13.30;99.90
16140;DHT22;8175;49.326;12.690;2023-08-01T19:23:46;13.20;99.90
16140;DHT22;8175;49.326;12.690;2023-08-01T19:26:12;13.10;99.90
16140;DHT22;8175;49.326;12.690;2023-08-01T19:28:38;13.10;99.90
16140;DHT22;8175;49.326;12.690;2023-08-01T19:31:04;13.10;99.90
16140;DHT22;8175;49.326;12.690;2023-08-01T19:33:30;13.00;99.90
16140;DHT22;8175;49.326;12.690;2023-08-01T19:35:56;13.00;99.90
16140;DHT22;8175;49.326;12.690;2023-08-01T19:38:21;13.00;99.90
16140;DHT22;8175;49.326;12.690;2023-08-01T19:40:47;13.00;99.90
16140;DHT22;8175;49.326;12.690;2023-08-01T19:43:14;13.00;99.90
16140;DHT22;8175;49.326;12.690;2023-08-01T19:45:41;13.00;99.90
16140;DHT22;8175;49.326;12.690;2023-08-01T19:48:08;13.00;99.90
16140;DHT22;8175;49.326;12.690;2023-08-01T19:50:39;13.10;99.90
16140;DHT22;8175;49.326;12.690;2023-08-01T19:53:08;13.20;99.90
16140;DHT22;8175;49.326;12.690;2023-08-01T19:55:35;13.30;99.90
16140;DHT22;8175;49.326;12.690;2023-08-01T19:58:01;13.30;99.90
16140;DHT22;8175;49.326;12.690;2023-08-01T20:00:27;13.30;99.90
16140;DHT22;8175;49.326;12.690;2023-08-01T20:02:54;13.40;99.90
16140;DHT22;8175;49.326;12.690;2023-08-01T20:05:20;13.40;99.90
16140;DHT22;8175;49.326;12.690;2023-08-01T20:07:45;13.40;99.90
16140;DHT22;8175;49.326;12.690;2023-08-01T20:10:11;13.30;99.90
16140;DHT22;8175;49.326;12.690;2023-08-01T20:12:37;13.40;99.90
16140;DHT22;8175;49.326;12.690;2023-08-01T20:15:03;13.40;99.90
16140;DHT22;8175;49.326;12.690;2023-08-01T20:17:31;13.40;99.90
16140;DHT22;8175;49.326;12.690;2023-08-01T20:19:57;13.40;99.90
16140;DHT22;8175;49.326;12.690;2023-08-01T20:22:23;13.40;99.90
16140;DHT22;8175;49.326;12.690;2023-08-01T20:24:49;13.40;99.90
16140;DHT22;8175;49.326;12.690;2023-08-01T20:27:15;13.30;99.90
16140;DHT22;8175;49.326;12.690;2023-08-01T20:29:41;13.30;99.90
16140;DHT22;8175;49.326;12.690;2023-08-01T20:32:07;13.30;99.90
16140;DHT22;8175;49.326;12.690;2023-08-01T20:34:36;13.30;99.90
16140;DHT22;8175;49.326;12.690;2023-08-01T20:37:02;13.30;99.90
16140;DHT22;8175;49.326;12.690;2023-08-01T20:39:31;13.30;99.90
16140;DHT22;8175;49.326;12.690;2023-08-01T20:41:58;13.20;99.90
16140;DHT22;8175;49.326;12.690;2023-08-01T20:44:24;13.20;99.90
16140;DHT22;8175;49.326;12.690;2023-08-01T20:46:50;13.20;99.90
16140;DHT22;8175;49.326;12.690;2023-08-01T20:49:15;13.20;99.90
16140;DHT22;8175;49.326;12.690;2023-08-01T20:51:41;13.20;99.90
16140;DHT22;8175;49.326;12.690;2023-08-01T20:54:07;13.20;99.90
16140;DHT22;8175;49.326;12.690;2023-08-01T20:56:34;13.20;99.90
16140;DHT22;8175;49.326;12.690;2023-08-01T20:59:00;13.20;99.90
16140;DHT22;8175;49.326;12.690;2023-08-01T21:01:26;13.20;99.90
16140;DHT22;8175;49.326;12.690;2023-08-01T21:03:51;13.10;99.90
16140;DHT22;8175;49.326;12.690;2023-08-01T21:06:18;13.20;99.90
16140;DHT22;8175;49.326;12.690;2023-08-01T21:08:43;13.10;99.90
16140;DHT22;8175;49.326;12.690;2023-08-01T21:11:10;13.10;99.90
16140;DHT22;8175;49.326;12.690;2023-08-01T21:13:36;13.10;99.90
16140;DHT22;8175;49.326;12.690;2023-08-01T21:16:15;13.10;99.90
16140;DHT22;8175;49.326;12.690;2023-08-01T21:18:42;13.10;99.90
16140;DHT22;8175;49.326;12.690;2023-08-01T21:21:12;13.10;99.90
16140;DHT22;8175;49.326;12.690;2023-08-01T21:23:41;13.10;99.90
16140;DHT22;8175;49.326;12.690;2023-08-01T21:26:08;13.10;99.90
16140;DHT22;8175;49.326;12.690;2023-08-01T21:28:34;13.10;99.90
16140;DHT22;8175;49.326;12.690;2023-08-01T21:31:01;13.10;99.90
16140;DHT22;8175;49.326;12.690;2023-08-01T21:33:27;13.10;99.90
16140;DHT22;8175;49.326;12.690;2023-08-01T21:35:52;13.10;99.90
16140;DHT22;8175;49.326;12.690;2023-08-01T21:38:18;13.20;99.90
16140;DHT22;8175;49.326;12.690;2023-08-01T21:40:43;13.10;99.90
16140;DHT22;8175;49.326;12.690;2023-08-01T21:43:09;13.10;99.90
16140;DHT22;8175;49.326;12.690;2023-08-01T21:45:35;13.10;99.90
16140;DHT22;8175;49.326;12.690;2023-08-01T21:48:01;13.10;99.90
16140;DHT22;8175;49.326;12.690;2023-08-01T21:50:27;13.10;99.90
16140;DHT22;8175;49.326;12.690;2023-08-01T21:52:53;13.10;99.90
16140;DHT22;8175;49.326;12.690;2023-08-01T21:55:19;13.10;99.90
16140;DHT22;8175;49.326;12.690;2023-08-01T21:57:45;13.10;99.90
16140;DHT22;8175;49.326;12.690;2023-08-01T22:00:14;13.00;99.90
16140;DHT22;8175;49.326;12.690;2023-08-01T22:02:40;13.00;99.90
16140;DHT22;8175;49.326;12.690;2023-08-01T22:05:07;13.00;99.90
16140;DHT22;8175;49.326;12.690;2023-08-01T22:07:33;13.00;99.90
16140;DHT22;8175;49.326;12.690;2023-08-01T22:09:59;12.90;99.90
16140;DHT22;8175;49.326;12.690;2023-08-01T22:12:25;12.90;99.90
16140;DHT22;8175;49.326;12.690;2023-08-01T22:14:51;12.90;99.90
16140;DHT22;8175;49.326;12.690;2023-08-01T22:17:17;12.90;99.90
16140;DHT22;8175;49.326;12.690;2023-08-01T22:19:44;12.80;99.90
16140;DHT22;8175;49.326;12.690;2023-08-01T22:22:10;12.80;99.90
16140;DHT22;8175;49.326;12.690;2023-08-01T22:24:36;12.80;99.90